Black River, Michigan
Current Conditions -  °F | °C
As of 8:54 AM on Friday 19 Dec 2014 (Local Time) from KAPN Reporting Station
Overcast Overcast  
Wind Chill:   Ceiling: 1500
Heat Index: 16°   Visibility: 10mi
Dew Point: 13°   Wind: 7mph
Humidity: 88%   Direction: 280°W
Pressure: 30.28"   Gusts: NA
Location:  44.82°N, 83.3°W
Report Text: KAPN 191354Z AUTO 28006KT 10SM OVC015 M09/M11 A3028 RMK AO2 SLP269 T10891106
Loading
Personal Weather Stations






























Interactive Weather Map New forecast layout! Learn more

10-Day Weather Forecast

Advertisements
Track Severe Weather on mobile